Time;durP1;ratioP1;P1;durP2;ratioP2;P2;SDS_P1;SDS_P2;PMS_P1;PMS_P2;Temp;Humidity;BMP_temperature;BMP_pressure;BME280_temperature;BME280_humidity;BME280_pressure;Samples;Min_cycle;Max_cycle;Signal;HPM_P1;HPM_P2
2023/05/21 00:02:03;;;;;;;;;;;20.50;48.00;;;;;;5086979;28;20023;-53
2023/05/21 00:04:30;;;;;;;;;;;20.60;48.00;;;;;;5081471;28;19966;-54
2023/05/21 00:06:58;;;;;;;;;;;20.50;48.00;;;;;;5079907;28;19912;-53
2023/05/21 00:09:24;;;;;;;;;;;20.50;48.10;;;;;;5079967;28;19920;-53
2023/05/21 00:11:49;;;;;;;;;;;20.50;48.10;;;;;;5077126;28;19931;-53
2023/05/21 00:14:15;;;;;;;;;;;20.50;48.00;;;;;;5086576;28;19912;-55
2023/05/21 00:16:40;;;;;;;;;;;20.50;48.00;;;;;;5085388;28;20241;-53
2023/05/21 00:19:06;;;;;;;;;;;20.50;48.00;;;;;;5084226;28;20250;-54
2023/05/21 00:21:32;;;;;;;;;;;20.40;48.00;;;;;;5093732;28;19912;-54
2023/05/21 00:23:57;;;;;;;;;;;20.50;48.10;;;;;;5062570;28;19913;-54
2023/05/21 00:26:23;;;;;;;;;;;20.50;48.10;;;;;;5073954;28;20425;-53
2023/05/21 00:28:49;;;;;;;;;;;20.40;48.00;;;;;;5082604;28;19923;-54
2023/05/21 00:31:14;;;;;;;;;;;20.50;48.10;;;;;;5081635;28;19959;-53
2023/05/21 00:33:40;;;;;;;;;;;20.50;48.10;;;;;;5074807;28;20296;-54
2023/05/21 00:36:06;;;;;;;;;;;20.50;48.10;;;;;;5061043;28;20391;-53
2023/05/21 00:38:31;;;;;;;;;;;20.40;47.90;;;;;;5067053;28;20011;-53
2023/05/21 00:41:03;;;;;;;;;;;20.40;48.00;;;;;;5088566;28;20452;-54
2023/05/21 00:43:28;;;;;;;;;;;20.40;48.00;;;;;;5071791;28;19920;-54
2023/05/21 00:45:55;;;;;;;;;;;20.40;48.00;;;;;;5087536;28;19978;-54
2023/05/21 00:48:20;;;;;;;;;;;20.40;48.00;;;;;;5067723;28;20003;-54
2023/05/21 00:50:46;;;;;;;;;;;20.40;48.00;;;;;;5079785;28;19998;-54
2023/05/21 00:53:14;;;;;;;;;;;20.40;48.00;;;;;;5091142;28;20563;-53
2023/05/21 00:55:39;;;;;;;;;;;20.40;48.00;;;;;;5083790;28;19926;-54
2023/05/21 00:58:05;;;;;;;;;;;20.40;48.00;;;;;;5070093;28;20283;-54
2023/05/21 01:00:34;;;;;;;;;;;20.40;48.00;;;;;;5059786;28;19923;-53
2023/05/21 01:02:59;;;;;;;;;;;20.40;48.00;;;;;;5072151;28;20012;-53
2023/05/21 01:05:26;;;;;;;;;;;20.30;48.00;;;;;;5084902;28;20415;-53
2023/05/21 01:07:51;;;;;;;;;;;20.40;48.10;;;;;;5092095;28;19916;-54
2023/05/21 01:10:16;;;;;;;;;;;20.30;48.00;;;;;;5080590;28;19934;-54
2023/05/21 01:12:42;;;;;;;;;;;20.30;48.00;;;;;;5071735;28;19920;-54
2023/05/21 01:15:09;;;;;;;;;;;20.40;48.60;;;;;;5084379;28;19917;-54
2023/05/21 01:17:35;;;;;;;;;;;20.30;47.90;;;;;;5080465;28;19920;-54
2023/05/21 01:20:00;;;;;;;;;;;20.40;47.90;;;;;;5053980;28;20376;-54
2023/05/21 01:22:27;;;;;;;;;;;20.40;47.90;;;;;;5054599;28;19931;-53
2023/05/21 01:24:54;;;;;;;;;;;20.40;47.90;;;;;;5080030;28;19923;-55
2023/05/21 01:27:19;;;;;;;;;;;20.40;47.80;;;;;;5079264;28;20387;-54
2023/05/21 01:29:45;;;;;;;;;;;20.40;47.70;;;;;;5077056;28;19912;-54
2023/05/21 01:32:13;;;;;;;;;;;20.40;47.70;;;;;;5087926;28;20399;-54
2023/05/21 01:34:42;;;;;;;;;;;20.50;47.80;;;;;;5083546;28;19935;-54
2023/05/21 01:37:09;;;;;;;;;;;20.50;47.70;;;;;;5088747;28;20270;-54
2023/05/21 01:39:37;;;;;;;;;;;20.50;47.60;;;;;;5068089;28;19931;-54
2023/05/21 01:42:02;;;;;;;;;;;20.60;47.60;;;;;;5089607;28;20417;-54
2023/05/21 01:44:28;;;;;;;;;;;20.60;47.50;;;;;;5083999;28;20000;-54
2023/05/21 01:46:53;;;;;;;;;;;20.60;47.50;;;;;;5059718;28;19930;-53
2023/05/21 01:49:19;;;;;;;;;;;20.60;47.40;;;;;;5090241;28;20013;-54
2023/05/21 01:51:44;;;;;;;;;;;20.60;47.30;;;;;;5066203;28;20385;-54
2023/05/21 01:54:10;;;;;;;;;;;20.70;47.30;;;;;;5088623;28;19919;-54
2023/05/21 01:56:35;;;;;;;;;;;20.70;47.30;;;;;;5080669;28;20005;-54
2023/05/21 01:59:01;;;;;;;;;;;20.70;47.30;;;;;;5073505;28;20300;-54
2023/05/21 02:01:28;;;;;;;;;;;20.70;47.30;;;;;;5079437;28;19930;-54
2023/05/21 02:03:54;;;;;;;;;;;20.70;47.30;;;;;;5083822;28;20007;-53
2023/05/21 02:06:20;;;;;;;;;;;20.70;47.20;;;;;;5076360;28;20008;-54
2023/05/21 02:08:47;;;;;;;;;;;20.70;47.20;;;;;;5090233;28;19912;-54
2023/05/21 02:11:12;;;;;;;;;;;20.70;47.40;;;;;;5087138;28;19917;-53
2023/05/21 02:13:41;;;;;;;;;;;20.60;47.40;;;;;;5081939;28;19912;-55
2023/05/21 02:16:10;;;;;;;;;;;20.60;47.30;;;;;;5078597;28;19916;-54
2023/05/21 02:18:36;;;;;;;;;;;20.60;47.40;;;;;;5086868;28;20030;-54
2023/05/21 02:21:02;;;;;;;;;;;20.60;47.40;;;;;;5088259;28;19919;-53
2023/05/21 02:23:27;;;;;;;;;;;20.60;47.40;;;;;;5092591;28;19916;-54
2023/05/21 02:25:53;;;;;;;;;;;20.60;47.40;;;;;;5087119;28;20415;-54
2023/05/21 02:28:20;;;;;;;;;;;20.60;47.50;;;;;;5088531;28;19973;-54
2023/05/21 02:30:45;;;;;;;;;;;20.60;47.40;;;;;;5080921;28;19913;-54
2023/05/21 02:33:13;;;;;;;;;;;20.50;47.40;;;;;;5085530;28;19919;-54
2023/05/21 02:35:38;;;;;;;;;;;20.50;47.50;;;;;;5090899;28;20299;-54
2023/05/21 02:38:04;;;;;;;;;;;20.60;47.60;;;;;;5074967;28;19912;-54
2023/05/21 02:40:29;;;;;;;;;;;20.50;47.50;;;;;;5082467;28;20372;-54
2023/05/21 02:42:55;;;;;;;;;;;20.50;47.50;;;;;;5080824;28;19936;-54
2023/05/21 02:45:20;;;;;;;;;;;20.50;48.30;;;;;;5077561;28;19912;-55
2023/05/21 02:47:46;;;;;;;;;;;20.50;47.70;;;;;;5089026;28;19931;-54
2023/05/21 02:50:12;;;;;;;;;;;20.50;47.50;;;;;;5081188;28;19954;-53
2023/05/21 02:52:37;;;;;;;;;;;20.50;47.70;;;;;;5085739;28;19916;-54
2023/05/21 02:55:03;;;;;;;;;;;20.50;47.70;;;;;;5074924;28;19923;-53
2023/05/21 02:57:28;;;;;;;;;;;20.50;47.70;;;;;;5054010;28;20300;-54
2023/05/21 02:59:54;;;;;;;;;;;20.50;47.70;;;;;;5087008;28;20288;-53
2023/05/21 03:02:19;;;;;;;;;;;20.50;47.70;;;;;;5074926;28;19917;-54
2023/05/21 03:04:45;;;;;;;;;;;20.50;47.70;;;;;;5073685;28;19919;-54
2023/05/21 03:07:12;;;;;;;;;;;20.40;47.60;;;;;;5068974;28;20360;-54
2023/05/21 03:09:38;;;;;;;;;;;20.40;47.70;;;;;;5072575;28;19920;-53
2023/05/21 03:12:04;;;;;;;;;;;20.40;47.60;;;;;;5073106;28;19919;-53
2023/05/21 03:14:29;;;;;;;;;;;20.40;47.70;;;;;;5074866;28;19920;-54
2023/05/21 03:16:55;;;;;;;;;;;20.40;47.70;;;;;;5056498;28;19924;-54
2023/05/21 03:19:20;;;;;;;;;;;20.40;47.60;;;;;;5082613;28;19999;-54
2023/05/21 03:21:47;;;;;;;;;;;20.40;47.60;;;;;;5075905;28;20284;-54
2023/05/21 03:24:14;;;;;;;;;;;20.40;47.60;;;;;;5083136;28;20421;-54
2023/05/21 03:26:39;;;;;;;;;;;20.40;47.60;;;;;;5076451;28;19912;-53
2023/05/21 03:29:04;;;;;;;;;;;20.40;47.60;;;;;;5070002;28;19912;-55
2023/05/21 03:31:30;;;;;;;;;;;20.40;47.60;;;;;;5074987;28;20423;-54
2023/05/21 03:33:56;;;;;;;;;;;20.40;47.50;;;;;;5075508;28;19919;-54
2023/05/21 03:36:21;;;;;;;;;;;20.40;47.70;;;;;;5077097;28;20445;-54
2023/05/21 03:38:46;;;;;;;;;;;20.40;47.70;;;;;;5089921;28;19916;-54
2023/05/21 03:41:12;;;;;;;;;;;20.40;47.60;;;;;;5081899;28;20303;-54
2023/05/21 03:43:37;;;;;;;;;;;20.40;47.60;;;;;;5089536;28;20292;-54
2023/05/21 03:46:03;;;;;;;;;;;20.40;47.50;;;;;;5080903;28;19927;-53
2023/05/21 03:48:28;;;;;;;;;;;20.40;47.50;;;;;;5092257;28;19919;-54
2023/05/21 03:50:54;;;;;;;;;;;20.40;47.60;;;;;;5086768;28;19913;-53
2023/05/21 03:53:20;;;;;;;;;;;20.40;47.60;;;;;;5067225;28;20372;-54
2023/05/21 03:55:46;;;;;;;;;;;20.40;47.60;;;;;;5077380;28;19969;-54
2023/05/21 03:58:11;;;;;;;;;;;20.40;47.70;;;;;;5075379;28;19970;-54
2023/05/21 04:00:37;;;;;;;;;;;20.40;47.60;;;;;;5075463;28;20317;-54
2023/05/21 04:03:02;;;;;;;;;;;20.40;47.60;;;;;;5086811;28;19916;-53
2023/05/21 04:05:28;;;;;;;;;;;20.40;47.90;;;;;;5090665;28;19948;-54
2023/05/21 04:07:53;;;;;;;;;;;20.40;47.70;;;;;;5071182;28;19965;-53
2023/05/21 04:10:19;;;;;;;;;;;20.40;47.60;;;;;;5062949;28;20420;-53
2023/05/21 04:12:45;;;;;;;;;;;20.40;47.70;;;;;;5090004;28;19912;-53
2023/05/21 04:15:11;;;;;;;;;;;20.40;47.60;;;;;;5091859;28;19920;-54
2023/05/21 04:17:36;;;;;;;;;;;20.40;47.70;;;;;;5081461;28;19918;-54
2023/05/21 04:20:02;;;;;;;;;;;20.40;47.70;;;;;;5079238;28;20332;-54
2023/05/21 04:22:28;;;;;;;;;;;20.40;47.70;;;;;;5082044;28;19912;-53
2023/05/21 04:24:53;;;;;;;;;;;20.40;47.80;;;;;;5064656;28;19912;-54
2023/05/21 04:27:24;;;;;;;;;;;20.40;47.70;;;;;;5089359;28;20376;-53
2023/05/21 04:29:50;;;;;;;;;;;20.40;47.90;;;;;;5092427;28;19978;-54
2023/05/21 04:32:16;;;;;;;;;;;20.40;47.90;;;;;;5091143;28;19962;-54
2023/05/21 04:34:42;;;;;;;;;;;20.40;47.90;;;;;;5090534;28;19962;-54
2023/05/21 04:37:08;;;;;;;;;;;20.40;47.80;;;;;;5084819;28;19959;-54
2023/05/21 04:39:33;;;;;;;;;;;20.40;47.70;;;;;;5080769;28;19930;-54
2023/05/21 04:41:59;;;;;;;;;;;20.40;47.70;;;;;;5087273;28;19970;-54
2023/05/21 04:44:24;;;;;;;;;;;20.40;47.70;;;;;;5090515;28;19967;-54
2023/05/21 04:46:51;;;;;;;;;;;20.40;47.90;;;;;;5082564;28;20392;-54
2023/05/21 04:49:16;;;;;;;;;;;20.40;47.70;;;;;;5087172;28;19916;-53
2023/05/21 04:51:42;;;;;;;;;;;20.40;47.80;;;;;;5078085;28;20288;-53
2023/05/21 04:54:07;;;;;;;;;;;20.40;47.90;;;;;;5076624;28;20256;-53
2023/05/21 04:56:33;;;;;;;;;;;20.40;47.90;;;;;;5078159;28;20291;-54
2023/05/21 04:58:58;;;;;;;;;;;20.40;47.80;;;;;;5085303;28;20138;-54
2023/05/21 05:01:28;;;;;;;;;;;20.40;47.80;;;;;;5076402;28;20349;-53
2023/05/21 05:03:53;;;;;;;;;;;20.40;47.90;;;;;;5054293;28;19920;-53
2023/05/21 05:06:19;;;;;;;;;;;20.40;48.00;;;;;;5085511;28;19916;-54
2023/05/21 05:08:47;;;;;;;;;;;20.40;47.90;;;;;;5074662;28;20002;-54
2023/05/21 05:11:12;;;;;;;;;;;20.40;47.90;;;;;;5058402;28;19923;-55
2023/05/21 05:13:38;;;;;;;;;;;20.40;47.80;;;;;;5079191;28;19916;-54
2023/05/21 05:16:04;;;;;;;;;;;20.40;48.00;;;;;;5084908;28;19924;-54
2023/05/21 05:18:30;;;;;;;;;;;20.40;48.00;;;;;;5082126;28;19916;-54
2023/05/21 05:20:56;;;;;;;;;;;20.40;48.30;;;;;;5083289;28;19931;-53
2023/05/21 05:23:21;;;;;;;;;;;20.40;48.20;;;;;;5084272;28;19926;-53
2023/05/21 05:25:47;;;;;;;;;;;20.40;48.20;;;;;;5088130;28;19920;-53
2023/05/21 05:28:12;;;;;;;;;;;20.40;48.20;;;;;;5081808;28;19947;-54
2023/05/21 05:30:38;;;;;;;;;;;20.40;48.20;;;;;;5081994;28;19920;-54
2023/05/21 05:33:03;;;;;;;;;;;20.40;48.20;;;;;;5083488;28;19912;-54
2023/05/21 05:35:29;;;;;;;;;;;20.40;48.10;;;;;;5076944;28;19917;-54
2023/05/21 05:37:54;;;;;;;;;;;20.40;48.10;;;;;;5080637;28;19912;-53
2023/05/21 05:40:20;;;;;;;;;;;20.30;48.10;;;;;;5082899;28;20342;-53
2023/05/21 05:42:48;;;;;;;;;;;20.40;48.20;;;;;;5063174;28;19952;-54
2023/05/21 05:45:13;;;;;;;;;;;20.40;48.30;;;;;;5088695;28;20380;-54
2023/05/21 05:47:39;;;;;;;;;;;20.40;48.20;;;;;;5083840;28;19962;-54
2023/05/21 05:50:05;;;;;;;;;;;20.40;48.10;;;;;;5084453;28;20405;-54
2023/05/21 05:52:30;;;;;;;;;;;20.40;48.20;;;;;;5074200;28;19970;-53
2023/05/21 05:54:55;;;;;;;;;;;20.40;48.20;;;;;;5077856;28;19916;-53
2023/05/21 05:57:21;;;;;;;;;;;20.40;48.20;;;;;;5077675;28;19920;-53
2023/05/21 05:59:46;;;;;;;;;;;20.40;48.20;;;;;;5077430;28;20292;-54
2023/05/21 06:02:12;;;;;;;;;;;20.40;48.30;;;;;;5084999;28;20322;-54
2023/05/21 06:04:37;;;;;;;;;;;20.40;48.30;;;;;;5059877;28;20340;-54
2023/05/21 06:07:03;;;;;;;;;;;20.40;48.40;;;;;;5086515;28;20422;-54
2023/05/21 06:09:28;;;;;;;;;;;20.40;48.60;;;;;;5087798;28;20414;-54
2023/05/21 06:11:54;;;;;;;;;;;20.40;48.70;;;;;;5081387;28;20303;-54
2023/05/21 06:14:19;;;;;;;;;;;20.40;48.50;;;;;;5078392;28;19912;-54
2023/05/21 06:16:45;;;;;;;;;;;20.40;48.30;;;;;;5085347;28;19938;-54
2023/05/21 06:19:10;;;;;;;;;;;20.40;48.40;;;;;;5083915;28;19923;-53
2023/05/21 06:21:36;;;;;;;;;;;20.40;48.50;;;;;;5086719;28;20007;-54
2023/05/21 06:24:01;;;;;;;;;;;20.40;48.50;;;;;;5091180;28;19916;-54
2023/05/21 06:26:27;;;;;;;;;;;20.40;48.70;;;;;;5084308;28;19916;-52
2023/05/21 06:28:52;;;;;;;;;;;20.40;48.60;;;;;;5079597;28;20362;-54
2023/05/21 06:31:17;;;;;;;;;;;20.40;48.60;;;;;;5072000;28;19919;-54
2023/05/21 06:33:43;;;;;;;;;;;20.40;48.70;;;;;;5079643;28;19913;-54
2023/05/21 06:36:08;;;;;;;;;;;20.40;48.70;;;;;;5087415;28;20368;-54
2023/05/21 06:38:34;;;;;;;;;;;20.40;48.70;;;;;;5083419;28;20340;-54
2023/05/21 06:41:01;;;;;;;;;;;20.40;48.70;;;;;;5062460;28;20273;-54
2023/05/21 06:43:27;;;;;;;;;;;20.40;48.70;;;;;;5082398;28;19916;-54
2023/05/21 06:45:53;;;;;;;;;;;20.40;48.80;;;;;;5077683;28;19916;-53
2023/05/21 06:48:18;;;;;;;;;;;20.40;48.80;;;;;;5087492;28;19925;-54
2023/05/21 06:50:43;;;;;;;;;;;20.50;48.90;;;;;;5081366;28;19991;-54
2023/05/21 06:53:09;;;;;;;;;;;20.50;49.00;;;;;;5093019;28;20288;-54
2023/05/21 06:55:35;;;;;;;;;;;20.50;49.00;;;;;;5078463;28;19989;-54
2023/05/21 06:58:00;;;;;;;;;;;20.50;49.00;;;;;;5085097;28;20092;-54
2023/05/21 07:00:26;;;;;;;;;;;20.50;49.00;;;;;;5072687;28;19916;-54
2023/05/21 07:02:51;;;;;;;;;;;20.50;49.00;;;;;;5072943;28;19913;-55
2023/05/21 07:05:17;;;;;;;;;;;20.50;49.10;;;;;;5078674;28;19926;-54
2023/05/21 07:07:42;;;;;;;;;;;20.50;49.10;;;;;;5064233;28;19919;-54
2023/05/21 07:10:08;;;;;;;;;;;20.50;49.10;;;;;;5085430;28;19920;-54
2023/05/21 07:12:33;;;;;;;;;;;20.50;49.10;;;;;;5080369;28;19909;-54
2023/05/21 07:14:59;;;;;;;;;;;20.50;49.20;;;;;;5084141;28;19916;-54
2023/05/21 07:17:24;;;;;;;;;;;20.50;49.30;;;;;;5080976;28;19920;-54
2023/05/21 07:19:50;;;;;;;;;;;20.50;49.40;;;;;;5077324;28;19955;-54
2023/05/21 07:22:15;;;;;;;;;;;20.50;49.30;;;;;;5047931;28;19912;-54
2023/05/21 07:24:41;;;;;;;;;;;20.50;49.30;;;;;;5083453;28;20372;-54
2023/05/21 07:27:06;;;;;;;;;;;20.50;49.20;;;;;;5083783;28;20363;-54
2023/05/21 07:29:32;;;;;;;;;;;20.50;49.30;;;;;;5084680;28;20325;-54
2023/05/21 07:31:57;;;;;;;;;;;20.50;49.50;;;;;;5085624;28;19916;-53
2023/05/21 07:34:23;;;;;;;;;;;20.50;49.70;;;;;;5083119;28;19912;-54
2023/05/21 07:36:48;;;;;;;;;;;20.50;49.80;;;;;;5079947;28;20277;-55
2023/05/21 07:39:14;;;;;;;;;;;20.50;49.50;;;;;;5084034;28;20455;-54
2023/05/21 07:41:39;;;;;;;;;;;20.50;49.50;;;;;;5084032;28;19912;-54
2023/05/21 07:44:05;;;;;;;;;;;20.50;49.60;;;;;;5082917;28;19920;-54
2023/05/21 07:46:30;;;;;;;;;;;20.60;49.80;;;;;;5062517;28;19924;-54
2023/05/21 07:48:56;;;;;;;;;;;20.60;49.70;;;;;;5050510;28;19912;-55
2023/05/21 07:51:21;;;;;;;;;;;20.60;49.80;;;;;;5065113;28;19928;-54
2023/05/21 07:53:47;;;;;;;;;;;20.60;50.30;;;;;;5087026;28;20295;-54
2023/05/21 07:56:12;;;;;;;;;;;20.60;50.00;;;;;;5096433;28;20336;-54
2023/05/21 07:58:39;;;;;;;;;;;20.70;50.60;;;;;;5094816;28;19975;-54
2023/05/21 08:01:05;;;;;;;;;;;20.70;50.60;;;;;;5077021;28;19958;-53
2023/05/21 08:03:30;;;;;;;;;;;20.70;50.60;;;;;;5084572;28;19963;-55
2023/05/21 08:05:55;;;;;;;;;;;20.70;50.80;;;;;;5076630;28;19922;-54
2023/05/21 08:08:22;;;;;;;;;;;20.70;50.80;;;;;;5087849;28;19908;-54
2023/05/21 08:10:47;;;;;;;;;;;20.70;50.70;;;;;;5077484;28;20345;-54
2023/05/21 08:13:16;;;;;;;;;;;20.70;50.80;;;;;;5085855;28;19920;-54
2023/05/21 08:15:41;;;;;;;;;;;20.70;51.40;;;;;;5066273;28;20268;-54
2023/05/21 08:18:07;;;;;;;;;;;20.70;51.00;;;;;;5082687;28;19920;-54
2023/05/21 08:20:32;;;;;;;;;;;20.70;51.10;;;;;;5080553;28;20368;-55
2023/05/21 08:22:58;;;;;;;;;;;20.70;51.10;;;;;;5096168;28;20347;-54
2023/05/21 08:25:24;;;;;;;;;;;20.80;51.30;;;;;;5062601;28;19919;-54
2023/05/21 08:27:50;;;;;;;;;;;20.80;51.40;;;;;;5086916;28;19920;-54
2023/05/21 08:30:15;;;;;;;;;;;20.80;51.50;;;;;;5092109;28;19912;-54
2023/05/21 08:32:41;;;;;;;;;;;20.80;51.50;;;;;;5089867;28;19912;-54
2023/05/21 08:35:07;;;;;;;;;;;20.80;51.70;;;;;;5078197;28;20283;-54
2023/05/21 08:37:33;;;;;;;;;;;20.80;51.70;;;;;;5091996;28;19916;-54
2023/05/21 08:39:58;;;;;;;;;;;20.80;51.90;;;;;;5069839;28;19919;-54
2023/05/21 08:42:33;;;;;;;;;;;20.80;52.00;;;;;;5071222;28;20336;-54
2023/05/21 08:44:59;;;;;;;;;;;20.80;52.60;;;;;;5089579;28;19965;-54
2023/05/21 08:47:26;;;;;;;;;;;20.90;52.50;;;;;;5072446;28;20403;-55
2023/05/21 08:49:51;;;;;;;;;;;20.90;52.30;;;;;;5084971;28;20330;-55
2023/05/21 08:52:17;;;;;;;;;;;20.90;52.50;;;;;;5073551;28;20019;-55
2023/05/21 08:54:43;;;;;;;;;;;20.90;52.50;;;;;;5080305;28;20645;-54
2023/05/21 08:57:08;;;;;;;;;;;20.90;52.40;;;;;;5089288;28;19934;-55
2023/05/21 08:59:35;;;;;;;;;;;20.90;52.60;;;;;;5066228;28;19912;-55
2023/05/21 09:02:02;;;;;;;;;;;20.90;52.50;;;;;;5078304;28;19928;-55
2023/05/21 09:04:27;;;;;;;;;;;20.90;52.60;;;;;;5063238;28;19916;-55
2023/05/21 09:06:53;;;;;;;;;;;20.90;53.00;;;;;;5066036;28;19947;-55
2023/05/21 09:09:31;;;;;;;;;;;21.00;53.30;;;;;;5063262;28;19920;-55
2023/05/21 09:11:56;;;;;;;;;;;21.00;52.90;;;;;;5077523;28;19948;-54
2023/05/21 09:14:22;;;;;;;;;;;21.00;53.00;;;;;;5068017;28;20426;-55
2023/05/21 09:16:47;;;;;;;;;;;21.00;53.00;;;;;;5089098;28;20375;-55
2023/05/21 09:19:13;;;;;;;;;;;21.00;53.20;;;;;;5061783;28;20011;-55
2023/05/21 09:21:38;;;;;;;;;;;21.00;53.00;;;;;;5088372;28;19920;-54
2023/05/21 09:24:04;;;;;;;;;;;21.00;53.40;;;;;;5093666;28;19912;-54
2023/05/21 09:26:30;;;;;;;;;;;21.00;53.30;;;;;;5086823;28;20485;-54
2023/05/21 09:28:56;;;;;;;;;;;21.00;54.00;;;;;;5086081;28;19954;-55
2023/05/21 09:31:25;;;;;;;;;;;21.00;53.50;;;;;;5073379;28;20398;-54
2023/05/21 09:33:51;;;;;;;;;;;21.10;53.80;;;;;;5094156;28;19916;-53
2023/05/21 09:36:18;;;;;;;;;;;21.10;53.90;;;;;;5086572;28;19931;-53
2023/05/21 09:38:44;;;;;;;;;;;21.10;53.80;;;;;;5089423;28;20040;-54
2023/05/21 09:41:09;;;;;;;;;;;21.10;54.60;;;;;;5085179;28;19912;-54
2023/05/21 09:43:35;;;;;;;;;;;21.10;54.60;;;;;;5076888;28;19913;-53
2023/05/21 09:46:00;;;;;;;;;;;21.20;54.70;;;;;;5083246;28;19924;-54
2023/05/21 09:48:33;;;;;;;;;;;21.20;54.70;;;;;;5082661;28;20090;-53
2023/05/21 09:51:11;;;;;;;;;;;21.20;55.00;;;;;;5084950;28;19912;-54
2023/05/21 09:53:41;;;;;;;;;;;21.20;54.80;;;;;;5085710;28;19919;-54
2023/05/21 09:56:07;;;;;;;;;;;21.30;55.10;;;;;;5086894;28;19923;-54
2023/05/21 09:58:33;;;;;;;;;;;21.30;55.00;;;;;;5086692;28;19957;-53
2023/05/21 10:00:58;;;;;;;;;;;21.30;55.40;;;;;;5078113;28;19918;-54
2023/05/21 10:03:25;;;;;;;;;;;21.40;55.50;;;;;;5053009;28;19936;-53
2023/05/21 10:05:50;;;;;;;;;;;21.30;55.30;;;;;;5064958;28;19923;-54
2023/05/21 10:08:16;;;;;;;;;;;21.40;55.70;;;;;;5078578;28;19913;-54
2023/05/21 10:10:41;;;;;;;;;;;21.50;55.70;;;;;;5080830;28;19999;-54
2023/05/21 10:13:07;;;;;;;;;;;21.50;55.60;;;;;;5090491;28;19912;-54
2023/05/21 10:15:43;;;;;;;;;;;21.50;55.60;;;;;;5059498;28;19927;-54
2023/05/21 10:18:11;;;;;;;;;;;21.50;55.80;;;;;;5086243;28;19916;-54
2023/05/21 10:20:37;;;;;;;;;;;21.50;56.20;;;;;;5077694;28;19920;-54
2023/05/21 10:23:02;;;;;;;;;;;21.50;55.80;;;;;;5087892;28;19922;-53
2023/05/21 10:25:28;;;;;;;;;;;21.60;55.80;;;;;;5084386;28;19923;-54
2023/05/21 10:27:54;;;;;;;;;;;21.60;56.00;;;;;;5064501;28;20003;-54
2023/05/21 10:30:19;;;;;;;;;;;21.70;56.20;;;;;;5092295;28;19919;-54
2023/05/21 10:32:45;;;;;;;;;;;21.70;56.40;;;;;;5080618;28;19916;-54
2023/05/21 10:35:10;;;;;;;;;;;21.70;56.40;;;;;;5087855;28;20014;-54
2023/05/21 10:37:35;;;;;;;;;;;21.80;56.70;;;;;;5091604;28;19938;-54
2023/05/21 10:40:01;;;;;;;;;;;21.80;56.50;;;;;;5070831;28;20315;-54
2023/05/21 10:42:30;;;;;;;;;;;21.90;56.80;;;;;;5083063;28;19962;-54
2023/05/21 10:45:12;;;;;;;;;;;21.90;57.00;;;;;;5090696;28;19912;-55
2023/05/21 10:47:37;;;;;;;;;;;22.00;56.80;;;;;;5068769;28;19967;-54
2023/05/21 10:50:06;;;;;;;;;;;21.90;56.60;;;;;;5091427;28;19955;-55
2023/05/21 10:52:50;;;;;;;;;;;22.00;57.00;;;;;;5086989;28;20016;-54
2023/05/21 10:55:33;;;;;;;;;;;22.00;57.70;;;;;;5092496;28;19915;-55
2023/05/21 10:58:05;;;;;;;;;;;22.10;58.70;;;;;;5068031;28;19941;-54
2023/05/21 11:00:30;;;;;;;;;;;22.20;58.40;;;;;;5061793;28;20376;-54
2023/05/21 11:02:56;;;;;;;;;;;22.20;58.50;;;;;;5093138;28;19913;-54
2023/05/21 11:05:49;;;;;;;;;;;22.30;58.60;;;;;;5077581;28;19919;-54
2023/05/21 11:08:22;;;;;;;;;;;22.30;58.50;;;;;;5096266;28;19920;-54
2023/05/21 11:10:54;;;;;;;;;;;22.40;58.80;;;;;;5087530;28;19912;-54
2023/05/21 11:13:20;;;;;;;;;;;22.50;59.00;;;;;;5085934;28;20376;-53
2023/05/21 11:15:58;;;;;;;;;;;22.60;58.50;;;;;;5092194;28;19924;-54
2023/05/21 11:18:29;;;;;;;;;;;22.50;58.60;;;;;;5078100;28;19920;-54
2023/05/21 11:21:05;;;;;;;;;;;22.50;58.60;;;;;;5090693;28;20475;-53
2023/05/21 11:23:49;;;;;;;;;;;22.60;59.20;;;;;;5081413;28;19962;-54
2023/05/21 11:26:15;;;;;;;;;;;22.60;58.90;;;;;;5085587;28;19913;-53
2023/05/21 11:28:40;;;;;;;;;;;22.60;59.30;;;;;;5087307;28;19973;-54
2023/05/21 11:31:25;;;;;;;;;;;22.80;59.30;;;;;;5091496;28;19915;-53
2023/05/21 11:34:09;;;;;;;;;;;22.80;58.40;;;;;;5078771;28;20201;-54
2023/05/21 11:36:38;;;;;;;;;;;22.70;59.30;;;;;;5090314;28;19924;-53
2023/05/21 11:39:07;;;;;;;;;;;22.80;59.40;;;;;;5084437;28;19912;-53
2023/05/21 11:41:48;;;;;;;;;;;22.90;59.10;;;;;;5091304;28;20368;-53
2023/05/21 11:44:13;;;;;;;;;;;22.90;59.20;;;;;;5082722;28;19923;-54
2023/05/21 11:46:39;;;;;;;;;;;22.90;59.20;;;;;;5099770;28;20014;-54
2023/05/21 11:49:04;;;;;;;;;;;23.10;59.60;;;;;;5078667;28;19916;-54
2023/05/21 11:51:30;;;;;;;;;;;23.10;59.10;;;;;;5069061;28;19918;-53
2023/05/21 11:53:56;;;;;;;;;;;23.00;59.30;;;;;;5080972;28;19912;-54
2023/05/21 11:56:23;;;;;;;;;;;23.00;59.40;;;;;;5083471;28;20341;-54
2023/05/21 11:58:48;;;;;;;;;;;22.90;59.70;;;;;;5064858;28;20389;-53
2023/05/21 12:01:23;;;;;;;;;;;22.80;59.90;;;;;;5087443;28;20007;-53
2023/05/21 12:03:48;;;;;;;;;;;22.80;59.90;;;;;;5076984;28;19959;-53
2023/05/21 12:06:16;;;;;;;;;;;22.80;60.50;;;;;;5090860;28;19958;-54
2023/05/21 12:08:41;;;;;;;;;;;23.00;60.00;;;;;;5090843;28;19969;-54
2023/05/21 12:11:07;;;;;;;;;;;23.00;59.80;;;;;;5094620;28;19912;-54
2023/05/21 12:13:32;;;;;;;;;;;23.00;60.30;;;;;;5093398;28;19912;-53
2023/05/21 12:15:58;;;;;;;;;;;23.00;59.90;;;;;;5092850;28;19960;-52
2023/05/21 12:18:23;;;;;;;;;;;22.80;60.40;;;;;;5084775;28;20003;-53
2023/05/21 12:20:52;;;;;;;;;;;22.80;60.80;;;;;;5105562;28;20279;-54
2023/05/21 12:23:23;;;;;;;;;;;22.90;60.80;;;;;;5096373;28;19973;-54
2023/05/21 12:25:49;;;;;;;;;;;23.00;60.70;;;;;;5114778;28;19943;-54
2023/05/21 12:28:15;;;;;;;;;;;23.00;60.60;;;;;;5113699;28;19907;-53
2023/05/21 12:30:40;;;;;;;;;;;23.00;60.90;;;;;;5100966;28;19923;-54
2023/05/21 12:33:06;;;;;;;;;;;23.00;60.90;;;;;;5083139;28;19923;-53
2023/05/21 12:35:31;;;;;;;;;;;23.00;60.90;;;;;;5083309;28;19965;-54
2023/05/21 12:37:59;;;;;;;;;;;23.00;61.40;;;;;;5088952;28;19924;-53
2023/05/21 12:40:33;;;;;;;;;;;23.10;61.40;;;;;;5088492;28;20303;-53
2023/05/21 12:42:58;;;;;;;;;;;23.10;61.10;;;;;;5091389;28;19912;-54
2023/05/21 12:45:24;;;;;;;;;;;23.10;61.30;;;;;;5076055;28;19919;-54
2023/05/21 12:47:54;;;;;;;;;;;23.10;60.70;;;;;;5076054;28;20372;-54
2023/05/21 12:50:20;;;;;;;;;;;23.10;61.40;;;;;;5068944;28;19961;-54
2023/05/21 12:52:45;;;;;;;;;;;23.00;61.70;;;;;;5074648;28;20368;-54
2023/05/21 12:55:13;;;;;;;;;;;23.00;61.80;;;;;;5092058;28;19920;-54
2023/05/21 12:57:39;;;;;;;;;;;23.10;62.00;;;;;;5086536;28;19916;-53
2023/05/21 13:00:09;;;;;;;;;;;23.00;61.70;;;;;;5089953;28;20368;-53
2023/05/21 13:02:35;;;;;;;;;;;23.00;61.90;;;;;;5084249;28;19951;-53
2023/05/21 13:05:04;;;;;;;;;;;23.10;62.10;;;;;;5085735;28;20363;-53
2023/05/21 13:07:29;;;;;;;;;;;23.00;61.80;;;;;;5059464;28;19951;-53
2023/05/21 13:09:55;;;;;;;;;;;23.10;62.20;;;;;;5092260;28;19994;-55
2023/05/21 13:12:21;;;;;;;;;;;23.10;62.00;;;;;;5087653;28;19920;-55
2023/05/21 13:14:47;;;;;;;;;;;23.10;62.30;;;;;;5065603;28;20322;-55
2023/05/21 13:17:13;;;;;;;;;;;23.00;62.00;;;;;;5054177;28;19966;-53
2023/05/21 13:19:38;;;;;;;;;;;23.10;62.70;;;;;;5070237;28;19912;-55
2023/05/21 13:22:04;;;;;;;;;;;23.10;62.60;;;;;;5074165;28;20014;-55
2023/05/21 13:24:29;;;;;;;;;;;23.10;62.60;;;;;;5087957;28;19916;-55
2023/05/21 13:26:55;;;;;;;;;;;23.20;62.60;;;;;;5091116;28;19916;-55
2023/05/21 13:29:20;;;;;;;;;;;23.20;62.40;;;;;;5071574;28;19966;-55
2023/05/21 13:31:46;;;;;;;;;;;23.10;62.40;;;;;;5089254;28;19983;-55
2023/05/21 13:34:11;;;;;;;;;;;23.10;62.60;;;;;;5087111;28;20296;-55
2023/05/21 13:36:37;;;;;;;;;;;23.10;62.50;;;;;;5085584;28;19924;-53
2023/05/21 13:39:03;;;;;;;;;;;23.10;62.60;;;;;;5089741;28;20430;-55
2023/05/21 13:41:28;;;;;;;;;;;23.10;63.10;;;;;;5068564;28;19913;-53
2023/05/21 13:43:54;;;;;;;;;;;23.20;62.60;;;;;;5090132;28;19921;-53
2023/05/21 13:46:19;;;;;;;;;;;23.10;63.00;;;;;;5088794;28;20007;-53
2023/05/21 13:48:45;;;;;;;;;;;23.20;62.80;;;;;;5090999;28;19915;-53
2023/05/21 13:51:10;;;;;;;;;;;23.20;62.60;;;;;;5090223;28;19912;-53
2023/05/21 13:53:36;;;;;;;;;;;23.30;62.60;;;;;;5091558;28;19915;-54
2023/05/21 13:56:01;;;;;;;;;;;23.30;62.70;;;;;;5081061;28;20432;-54
2023/05/21 13:58:27;;;;;;;;;;;23.30;62.40;;;;;;5091666;28;19924;-53
2023/05/21 14:00:52;;;;;;;;;;;23.30;62.50;;;;;;5064093;28;19920;-53
2023/05/21 14:03:18;;;;;;;;;;;23.40;62.60;;;;;;5087840;28;20010;-53
2023/05/21 14:05:44;;;;;;;;;;;23.40;62.40;;;;;;5091148;28;19920;-54
2023/05/21 14:08:10;;;;;;;;;;;23.40;62.50;;;;;;5069487;28;19912;-53
2023/05/21 14:10:35;;;;;;;;;;;23.40;62.50;;;;;;5092505;28;20349;-54
2023/05/21 14:13:01;;;;;;;;;;;23.30;62.70;;;;;;5091381;28;19957;-54